KECS/ECS METAR and TAF weather

Enter ICAO airport designator
Station Type Date Time Source
KECS METAR 2022/11/26 09:35 UTC NOAA

KECS 260935Z AUTO 01008KT 10SM CLR 00/M07 A2988 RMK AO2


Station Type Date Time Source
KECS Decoded METAR 2022/11/26 09:35 UTC NOAA

Station name not available
Nov 26, 2022 - 04:35 AM EST / 2022.11.26 0935 UTC
Wind: from the N (010 degrees) at 9 MPH (8 KT):0
Visibility: 10 mile(s):0
Sky conditions: clear
Temperature: 32 F (0 C)
Windchill: 24 F (-4 C):1
Dew Point: 19 F (-7 C)
Relative Humidity: 59%
Pressure (altimeter): 29.88 in. Hg (1011 hPa)
ob: KECS 260935Z AUTO 01008KT 10SM CLR 00/M07 A2988 RMK AO2
cycle: 9

Station Type Date Time Source
KECS TAF UTC NOAA

Error!

Example: see airport list